Flugplatz Reutte-Höfen (LOIR)

Hier findest Du alle Informationen zum Flugplatz Reutte-Höfen (LOIR).

Informationen für Piloten zum Flugplatz Reutte-Höfen

Hier findest Du alle relevanten Informationen, die Du als Pilot benötigst, um Reutte-Höfen anzufliegen.

Flugplatz: Reutte-Höfen ICAO-Code: LOIR
Frequenz Turm: 122.40 Mhz GAFOR Gebiet: -
Frequenz Ground: 122.405 Mhz Mogas: ja
Platzrunde: S 5000 ft Landegebühr: 15 €
Platzhöhe: 2807 ft Sunrise: 03:27 Uhr UTC
Pisten: 04/22 - 679 m x 30 m, ASPH Sunset: 19:01 Uhr UTC

Mitglieder, die in Reutte-Höfen fliegen

Flugwetter am Flugplatz Reutte-Höfen

Die METAR Information stammen aus EDMO (80.95 km entfernt).

METAR Code:
2024/05/07 01:20
EDMO 070120Z AUTO 22006KT 9999 // FEW025/// SCT084/// OVC099/// 10/09 Q1014

Flugschulen am Flugplatz Reutte-Höfen

Am Flugplatz Reutte-Höfen gibt es leider keine Flugschule.

Benachbarte Flugplätze und Flugschulen

Es gibt 4 weitere Flugplätze in einem Umkreis von 50 km um den Flugplatz Reutte-Höfen.

Flugplatz Segelflugplatz Füssen UL Platz 12.41 km
Flugplatz Peiting UL Platz 36.03 km
Flugplatz Kempten-Durach EDMK 36.16 km
Flugplatz Altenstadt ETHA 42.81 km
Jetzt anmelden

Passwort vergessen

Umfrage Archiv

Wie häufig haltet Ihr die Halbkreisflugregel ein?

Eher häufig!
35.7 %
Immer!
31 %
Hin und wieder!
16.5 %
Nie!
9.4 %
Eher selten!
7.5 %
Stimmen: 255 | Diskussion
Anzeige: Roland Aircraft
Statistik Alle Mitglieder

Aktuell sind 23 Besucher online.

Anzeige: EasyVFR